createdAt,value
2023-05-14T00:00:53.520Z,24.85
2023-05-14T00:03:20.901Z,26.08
2023-05-14T00:05:48.671Z,24.73
2023-05-14T00:08:15.886Z,25.70
2023-05-14T00:10:43.214Z,25.50
2023-05-14T00:13:10.715Z,25.48
2023-05-14T00:15:38.167Z,25.67
2023-05-14T00:18:06.184Z,26.13
2023-05-14T00:20:33.654Z,26.15
2023-05-14T00:23:01.082Z,26.40
2023-05-14T00:25:28.685Z,25.85
2023-05-14T00:27:55.931Z,27.05
2023-05-14T00:30:24.065Z,26.92
2023-05-14T00:32:51.556Z,26.80
2023-05-14T00:35:20.534Z,25.98
2023-05-14T00:37:47.810Z,26.50
2023-05-14T00:40:15.530Z,27.55
2023-05-14T00:42:42.935Z,28.33
2023-05-14T00:45:10.784Z,28.50
2023-05-14T00:47:39.836Z,27.95
2023-05-14T00:50:07.773Z,29.05
2023-05-14T00:52:35.165Z,28.90
2023-05-14T00:55:04.303Z,27.80
2023-05-14T00:57:32.009Z,29.77
2023-05-14T00:59:59.622Z,28.77
2023-05-14T01:02:27.145Z,29.42
2023-05-14T01:04:54.813Z,30.80
2023-05-14T01:07:28.022Z,30.10
2023-05-14T01:10:01.561Z,30.38
2023-05-14T01:12:52.638Z,29.83
2023-05-14T01:15:22.416Z,30.95
2023-05-14T01:18:11.036Z,31.55
2023-05-14T01:20:39.391Z,31.55
2023-05-14T01:23:08.713Z,31.05
2023-05-14T01:25:36.086Z,31.73
2023-05-14T01:28:17.451Z,31.88
2023-05-14T01:30:58.701Z,32.00
2023-05-14T01:33:27.970Z,32.17
2023-05-14T01:35:55.960Z,33.27
2023-05-14T01:38:23.947Z,33.22
2023-05-14T01:40:51.762Z,33.75
2023-05-14T01:43:19.386Z,32.08
2023-05-14T01:45:47.082Z,34.15
2023-05-14T01:48:14.972Z,36.35
2023-05-14T01:50:42.188Z,35.38
2023-05-14T01:53:09.484Z,35.90
2023-05-14T01:55:36.782Z,37.22
2023-05-14T01:58:04.628Z,36.75
2023-05-14T02:00:32.068Z,36.63
2023-05-14T02:02:59.596Z,37.58
2023-05-14T02:05:26.942Z,35.70
2023-05-14T02:07:54.872Z,36.95
2023-05-14T02:10:22.361Z,37.10
2023-05-14T02:12:50.358Z,36.88
2023-05-14T02:15:17.642Z,38.35
2023-05-14T02:17:45.110Z,37.53
2023-05-14T02:20:12.798Z,38.28
2023-05-14T02:22:42.335Z,37.58
2023-05-14T02:25:09.939Z,38.40
2023-05-14T02:27:37.285Z,37.08
2023-05-14T02:30:06.198Z,38.65
2023-05-14T02:32:33.847Z,39.50
2023-05-14T02:35:01.462Z,40.40
2023-05-14T02:37:28.703Z,39.28
2023-05-14T02:39:55.946Z,39.33
2023-05-14T02:42:23.284Z,38.85
2023-05-14T02:44:52.348Z,38.90
2023-05-14T02:47:19.684Z,40.58
2023-05-14T02:49:46.930Z,40.83
2023-05-14T02:52:16.416Z,40.15
2023-05-14T02:54:43.778Z,40.08
2023-05-14T02:57:12.093Z,38.03
2023-05-14T02:59:39.837Z,38.58
2023-05-14T03:02:07.689Z,38.38
2023-05-14T03:04:35.502Z,38.63
2023-05-14T03:07:03.131Z,39.20
2023-05-14T03:09:30.549Z,39.10
2023-05-14T03:11:57.826Z,38.55
2023-05-14T03:14:25.092Z,38.60
2023-05-14T03:16:52.506Z,41.00
2023-05-14T03:19:19.736Z,40.92
2023-05-14T03:21:46.976Z,38.97
2023-05-14T03:24:14.195Z,39.83
2023-05-14T03:26:41.424Z,41.15
2023-05-14T03:29:09.806Z,42.30
2023-05-14T03:31:37.212Z,42.92
2023-05-14T03:34:04.549Z,43.17
2023-05-14T03:36:32.113Z,40.38
2023-05-14T03:38:59.337Z,42.30
2023-05-14T03:41:26.613Z,42.30
2023-05-14T03:43:53.948Z,44.88
2023-05-14T03:46:21.181Z,41.80
2023-05-14T03:48:48.492Z,44.17
2023-05-14T03:51:15.869Z,45.42
2023-05-14T03:53:43.273Z,44.60
2023-05-14T03:56:10.715Z,42.67
2023-05-14T03:58:38.418Z,41.75
2023-05-14T04:01:05.744Z,42.20
2023-05-14T04:03:33.219Z,43.40
2023-05-14T04:06:00.715Z,44.38
2023-05-14T04:08:27.997Z,44.45
2023-05-14T04:10:56.967Z,45.92
2023-05-14T04:13:24.263Z,45.75
2023-05-14T04:15:51.816Z,45.67
2023-05-14T04:18:19.339Z,47.25
2023-05-14T04:20:46.730Z,48.40
2023-05-14T04:23:13.892Z,45.75
2023-05-14T04:25:41.156Z,45.33
2023-05-14T04:28:08.638Z,45.28
2023-05-14T04:30:35.885Z,43.45
2023-05-14T04:33:03.377Z,42.33
2023-05-14T04:35:30.776Z,41.13
2023-05-14T04:37:57.998Z,42.78
2023-05-14T04:40:25.661Z,41.78
2023-05-14T04:42:53.136Z,44.15
2023-05-14T04:45:20.621Z,43.72
2023-05-14T04:47:47.946Z,44.10
2023-05-14T04:50:15.472Z,41.80
2023-05-14T04:52:42.773Z,42.88
2023-05-14T04:55:10.276Z,43.08
2023-05-14T04:57:37.916Z,43.35
2023-05-14T05:00:06.061Z,42.13
2023-05-14T05:02:34.822Z,43.97
2023-05-14T05:05:04.174Z,43.47
2023-05-14T05:07:31.509Z,41.70
2023-05-14T05:09:58.968Z,43.05
2023-05-14T05:12:29.903Z,42.97
2023-05-14T05:14:57.736Z,44.47
2023-05-14T05:17:29.463Z,44.20
2023-05-14T05:19:56.829Z,45.08
2023-05-14T05:22:24.478Z,45.97
2023-05-14T05:24:51.907Z,46.67
2023-05-14T05:27:21.008Z,46.35
2023-05-14T05:29:48.372Z,45.42
2023-05-14T05:32:15.612Z,43.97
2023-05-14T05:34:42.870Z,43.53
2023-05-14T05:37:12.876Z,42.38
2023-05-14T05:42:07.911Z,44.17
2023-05-14T05:44:35.523Z,46.05
2023-05-14T05:47:03.061Z,45.08
2023-05-14T05:49:30.528Z,44.92
2023-05-14T05:51:57.752Z,46.22
2023-05-14T05:54:25.544Z,45.25
2023-05-14T05:56:52.838Z,43.58
2023-05-14T05:59:20.090Z,44.53
2023-05-14T06:01:48.190Z,46.75
2023-05-14T06:04:15.515Z,47.58
2023-05-14T06:06:42.914Z,45.92
2023-05-14T06:09:10.539Z,46.28
2023-05-14T06:11:37.866Z,48.05
2023-05-14T06:14:05.410Z,48.97
2023-05-14T06:16:32.763Z,49.15
2023-05-14T06:19:00.116Z,47.20
2023-05-14T06:21:27.545Z,48.00
2023-05-14T06:23:54.879Z,46.38
2023-05-14T06:26:22.159Z,46.60
2023-05-14T06:28:49.598Z,48.20
2023-05-14T06:31:16.875Z,48.60
2023-05-14T06:33:45.220Z,50.42
2023-05-14T06:36:12.913Z,52.25
2023-05-14T06:38:40.257Z,49.30
2023-05-14T06:41:07.565Z,49.30
2023-05-14T06:43:34.950Z,50.72
2023-05-14T06:46:02.558Z,53.38
2023-05-14T06:48:30.968Z,50.75
2023-05-14T06:50:58.350Z,52.72
2023-05-14T06:53:25.544Z,49.78
2023-05-14T06:55:52.761Z,49.67
2023-05-14T06:58:20.005Z,50.55
2023-05-14T07:00:48.346Z,53.13
2023-05-14T07:03:15.669Z,51.92
2023-05-14T07:05:44.989Z,51.70
2023-05-14T07:08:12.305Z,52.63
2023-05-14T07:10:39.731Z,52.38
2023-05-14T07:13:07.939Z,52.53
2023-05-14T07:15:35.355Z,53.22
2023-05-14T07:18:02.731Z,51.03
2023-05-14T07:20:29.993Z,51.00
2023-05-14T07:22:57.371Z,53.13
2023-05-14T07:25:24.761Z,50.30
2023-05-14T07:27:52.075Z,50.78
2023-05-14T07:30:19.897Z,51.58
2023-05-14T07:32:47.205Z,49.05
2023-05-14T07:35:14.495Z,49.17
2023-05-14T07:37:42.894Z,51.90
2023-05-14T07:40:10.492Z,51.03
2023-05-14T07:42:37.894Z,48.75
2023-05-14T07:45:05.822Z,47.33
2023-05-14T07:47:33.836Z,48.67
2023-05-14T07:50:01.213Z,49.15
2023-05-14T07:52:31.007Z,48.63
2023-05-14T07:54:58.289Z,44.67
2023-05-14T07:57:26.347Z,45.33
2023-05-14T07:59:53.664Z,44.75
2023-05-14T08:02:21.096Z,45.80
2023-05-14T08:04:48.635Z,44.38
2023-05-14T08:07:15.961Z,44.42
2023-05-14T08:09:43.294Z,41.72
2023-05-14T08:12:10.537Z,42.10
2023-05-14T08:14:37.737Z,41.13
2023-05-14T08:17:04.976Z,40.78
2023-05-14T08:19:32.918Z,42.22
2023-05-14T08:22:00.217Z,41.60
2023-05-14T08:24:27.620Z,41.15
2023-05-14T08:26:55.894Z,40.30
2023-05-14T08:29:23.353Z,41.22
2023-05-14T08:31:51.275Z,42.58
2023-05-14T08:34:18.825Z,40.88
2023-05-14T08:36:46.340Z,40.63
2023-05-14T08:39:13.875Z,38.90
2023-05-14T08:41:41.469Z,38.25
2023-05-14T08:44:19.057Z,35.13
2023-05-14T08:46:46.511Z,38.67
2023-05-14T08:49:13.695Z,38.00
2023-05-14T08:51:42.754Z,37.28
2023-05-14T08:54:10.751Z,37.35
2023-05-14T08:56:39.013Z,35.10
2023-05-14T08:59:06.294Z,44.13
2023-05-14T09:01:33.663Z,39.40
2023-05-14T09:04:07.100Z,37.60
2023-05-14T09:06:37.543Z,36.42
2023-05-14T09:09:05.057Z,40.45
2023-05-14T09:11:32.336Z,37.88
2023-05-14T09:13:59.680Z,36.13
2023-05-14T09:16:27.009Z,37.22
2023-05-14T09:18:54.545Z,37.58
2023-05-14T09:21:21.856Z,40.33
2023-05-14T09:23:53.878Z,39.88
2023-05-14T09:26:24.608Z,38.70
2023-05-14T09:29:00.636Z,37.88
2023-05-14T09:31:32.586Z,38.28
2023-05-14T09:34:00.580Z,38.30
2023-05-14T09:36:27.837Z,38.42
2023-05-14T09:38:58.115Z,37.38
2023-05-14T09:41:25.785Z,37.53
2023-05-14T09:43:53.395Z,37.15
2023-05-14T09:46:22.855Z,36.47
2023-05-14T09:48:50.304Z,34.42
2023-05-14T09:51:17.755Z,34.28
2023-05-14T09:53:46.580Z,33.75
2023-05-14T09:56:15.021Z,33.88
2023-05-14T09:58:42.516Z,35.42
2023-05-14T10:01:09.927Z,36.58
2023-05-14T10:03:37.335Z,36.08
2023-05-14T10:06:05.794Z,36.78
2023-05-14T10:08:41.596Z,36.78
2023-05-14T10:11:13.523Z,35.88
2023-05-14T10:13:42.776Z,36.33
2023-05-14T10:16:24.450Z,35.38
2023-05-14T10:18:57.151Z,35.08
2023-05-14T10:21:25.896Z,33.72
2023-05-14T10:23:53.144Z,34.10
2023-05-14T10:26:23.206Z,34.22
2023-05-14T10:28:51.357Z,35.13
2023-05-14T10:31:18.666Z,35.83
2023-05-14T10:33:50.741Z,36.33
2023-05-14T10:36:18.751Z,34.03
2023-05-14T10:38:46.989Z,33.63
2023-05-14T10:41:17.702Z,33.97
2023-05-14T10:43:45.120Z,34.05
2023-05-14T10:46:13.665Z,35.00
2023-05-14T10:48:44.497Z,34.55
2023-05-14T10:51:12.823Z,32.67
2023-05-14T10:53:48.650Z,33.72
2023-05-14T10:56:30.900Z,34.15
2023-05-14T10:58:58.547Z,35.03
2023-05-14T11:01:27.871Z,33.80
2023-05-14T11:03:58.447Z,31.73
2023-05-14T11:06:26.549Z,33.97
2023-05-14T11:08:54.739Z,32.10
2023-05-14T11:11:22.233Z,32.75
2023-05-14T11:13:50.563Z,31.55
2023-05-14T11:16:23.323Z,31.70
2023-05-14T11:19:02.050Z,32.33
2023-05-14T11:21:30.347Z,32.92
2023-05-14T11:23:57.671Z,32.05
2023-05-14T11:26:26.185Z,30.20
2023-05-14T11:28:53.738Z,32.72
2023-05-14T11:31:22.443Z,33.35
2023-05-14T11:33:49.782Z,31.73
2023-05-14T11:36:17.177Z,30.92
2023-05-14T11:38:49.099Z,31.67
2023-05-14T11:41:16.421Z,31.40
2023-05-14T11:43:43.865Z,30.80
2023-05-14T11:46:16.759Z,30.00
2023-05-14T11:48:44.199Z,30.17
2023-05-14T11:51:11.438Z,28.52
2023-05-14T11:53:38.776Z,29.30
2023-05-14T11:56:08.205Z,29.77
2023-05-14T11:58:37.116Z,29.48
2023-05-14T12:01:04.856Z,30.65
2023-05-14T12:03:32.468Z,28.60
2023-05-14T12:06:01.868Z,29.70
2023-05-14T12:08:31.307Z,30.13
2023-05-14T12:10:59.973Z,29.77
2023-05-14T12:13:28.698Z,28.98
2023-05-14T12:15:57.517Z,28.80
2023-05-14T12:18:28.162Z,28.42
2023-05-14T12:20:55.822Z,28.67
2023-05-14T12:23:30.252Z,29.33
2023-05-14T12:26:06.295Z,27.83
2023-05-14T12:28:37.556Z,28.15
2023-05-14T12:31:05.249Z,31.15
2023-05-14T12:33:32.563Z,27.77
2023-05-14T12:38:33.903Z,27.88
2023-05-14T12:41:01.528Z,27.10
2023-05-14T12:43:31.593Z,26.08
2023-05-14T12:45:58.875Z,25.20
2023-05-14T12:48:26.157Z,25.63
2023-05-14T12:50:53.384Z,24.35
2023-05-14T12:53:20.728Z,24.85
2023-05-14T12:55:49.635Z,24.42
2023-05-14T12:58:16.865Z,25.35
2023-05-14T13:00:44.361Z,23.50
2023-05-14T13:03:11.733Z,23.02
2023-05-14T13:05:39.017Z,23.08
2023-05-14T13:08:06.320Z,24.00
2023-05-14T13:10:33.634Z,22.85
2023-05-14T13:13:02.527Z,23.98
2023-05-14T13:15:31.553Z,24.27
2023-05-14T13:17:58.877Z,23.25
2023-05-14T13:20:27.648Z,18.30
2023-05-14T13:22:55.087Z,23.40
2023-05-14T13:25:23.752Z,23.45
2023-05-14T13:27:51.218Z,21.83
2023-05-14T13:30:18.900Z,21.42
2023-05-14T13:32:46.657Z,21.65
2023-05-14T13:35:14.286Z,20.00
2023-05-14T13:37:43.557Z,21.38
2023-05-14T13:40:11.275Z,19.40
2023-05-14T13:42:39.861Z,19.30
2023-05-14T13:45:11.695Z,19.08
2023-05-14T13:47:40.279Z,21.05
2023-05-14T13:50:08.186Z,19.08
2023-05-14T13:52:35.671Z,19.42
2023-05-14T13:55:02.972Z,18.42
2023-05-14T13:57:30.297Z,18.38
2023-05-14T13:59:57.621Z,18.55
2023-05-14T14:02:24.891Z,18.65
2023-05-14T14:04:52.305Z,19.13
2023-05-14T14:07:21.290Z,16.42
2023-05-14T14:09:48.554Z,13.88
2023-05-14T14:12:16.001Z,15.18
2023-05-14T14:14:43.462Z,14.40
2023-05-14T14:17:10.719Z,13.23
2023-05-14T14:19:38.008Z,14.00
2023-05-14T14:22:05.343Z,12.63
2023-05-14T14:24:32.635Z,13.68
2023-05-14T14:26:59.924Z,13.95
2023-05-14T14:29:28.922Z,14.13
2023-05-14T14:31:57.640Z,13.98
2023-05-14T14:34:25.109Z,13.07
2023-05-14T14:36:52.408Z,11.68
2023-05-14T14:39:19.808Z,10.98
2023-05-14T14:41:47.866Z,11.55
2023-05-14T14:44:15.128Z,10.60
2023-05-14T14:46:42.968Z,10.60
2023-05-14T14:49:10.429Z,10.57
2023-05-14T14:51:37.760Z,10.70
2023-05-14T14:54:05.229Z,9.65
2023-05-14T14:56:32.608Z,9.52
2023-05-14T14:58:59.864Z,9.55
2023-05-14T15:01:27.494Z,9.50
2023-05-14T15:03:54.984Z,9.30
2023-05-14T15:06:23.514Z,9.45
2023-05-14T15:08:50.823Z,9.10
2023-05-14T15:11:18.171Z,9.07
2023-05-14T15:13:45.532Z,8.60
2023-05-14T15:16:13.803Z,8.88
2023-05-14T15:18:41.153Z,8.77
2023-05-14T15:21:10.095Z,7.68
2023-05-14T15:23:37.379Z,6.88
2023-05-14T15:26:04.823Z,6.40
2023-05-14T15:28:32.051Z,7.60
2023-05-14T15:30:59.390Z,6.95
2023-05-14T15:33:26.681Z,6.22
2023-05-14T15:35:54.075Z,6.70
2023-05-14T15:38:21.487Z,6.30
2023-05-14T15:40:51.109Z,7.03
2023-05-14T15:43:18.433Z,6.13
2023-05-14T15:45:46.131Z,5.30
2023-05-14T15:48:13.551Z,6.00
2023-05-14T15:50:41.950Z,6.18
2023-05-14T15:53:09.273Z,5.85
2023-05-14T15:55:36.595Z,5.75
2023-05-14T15:58:03.857Z,6.05
2023-05-14T16:00:31.142Z,5.85
2023-05-14T16:02:58.396Z,6.20
2023-05-14T16:05:25.881Z,5.88
2023-05-14T16:07:53.153Z,5.95
2023-05-14T16:10:21.531Z,5.47
2023-05-14T16:12:49.045Z,5.93
2023-05-14T16:15:16.526Z,5.30
2023-05-14T16:17:43.769Z,5.55
2023-05-14T16:20:11.883Z,5.85
2023-05-14T16:22:39.159Z,5.35
2023-05-14T16:25:06.730Z,5.60
2023-05-14T16:27:34.609Z,5.70
2023-05-14T16:30:01.883Z,5.63
2023-05-14T16:32:29.202Z,5.72
2023-05-14T16:34:56.625Z,5.13
2023-05-14T16:37:25.357Z,5.60
2023-05-14T16:39:52.677Z,5.80
2023-05-14T16:42:19.912Z,5.82
2023-05-14T16:44:47.182Z,6.13
2023-05-14T16:47:14.406Z,5.45
2023-05-14T16:49:41.744Z,6.13
2023-05-14T16:52:08.987Z,5.80
2023-05-14T16:54:36.457Z,5.57
2023-05-14T16:57:04.350Z,5.78
2023-05-14T16:59:31.770Z,5.53
2023-05-14T17:01:59.015Z,5.32
2023-05-14T17:04:26.708Z,5.78
2023-05-14T17:06:54.488Z,5.57
2023-05-14T17:09:21.805Z,5.72
2023-05-14T17:11:49.163Z,5.18
2023-05-14T17:14:16.445Z,5.63
2023-05-14T17:16:43.761Z,5.03
2023-05-14T17:19:11.215Z,6.10
2023-05-14T17:21:38.591Z,6.25
2023-05-14T17:24:06.373Z,5.88
2023-05-14T17:26:34.009Z,6.85
2023-05-14T17:29:02.174Z,5.90
2023-05-14T17:31:29.588Z,5.75
2023-05-14T17:33:56.969Z,6.50
2023-05-14T17:36:24.561Z,6.30
2023-05-14T17:38:52.496Z,6.10
2023-05-14T17:41:19.701Z,6.97
2023-05-14T17:43:47.475Z,6.82
2023-05-14T17:46:14.804Z,6.00
2023-05-14T17:48:42.189Z,5.53
2023-05-14T17:51:09.448Z,5.50
2023-05-14T17:53:36.762Z,6.65
2023-05-14T17:56:04.495Z,5.55
2023-05-14T17:58:31.896Z,6.10
2023-05-14T18:00:59.292Z,5.13
2023-05-14T18:03:27.017Z,5.65
2023-05-14T18:05:54.478Z,5.95
2023-05-14T18:08:22.457Z,5.45
2023-05-14T18:10:49.814Z,5.65
2023-05-14T18:13:17.131Z,6.22
2023-05-14T18:15:44.490Z,5.70
2023-05-14T18:18:11.941Z,6.10
2023-05-14T18:20:39.509Z,6.07
2023-05-14T18:23:06.917Z,5.78
2023-05-14T18:25:34.347Z,5.57
2023-05-14T18:28:01.611Z,5.65
2023-05-14T18:30:28.992Z,6.47
2023-05-14T18:32:56.361Z,6.38
2023-05-14T18:35:23.970Z,7.15
2023-05-14T18:37:51.395Z,7.68
2023-05-14T18:40:19.043Z,5.78
2023-05-14T18:42:46.349Z,6.15
2023-05-14T18:45:13.933Z,5.90
2023-05-14T18:47:41.350Z,6.05
2023-05-14T18:50:09.040Z,7.28
2023-05-14T18:52:36.724Z,6.53
2023-05-14T18:55:05.105Z,6.38
2023-05-14T18:57:32.969Z,7.53
2023-05-14T19:00:02.100Z,8.15
2023-05-14T19:02:29.494Z,7.13
2023-05-14T19:04:57.161Z,6.82
2023-05-14T19:07:24.424Z,7.35
2023-05-14T19:09:52.086Z,7.25
2023-05-14T19:12:21.580Z,7.18
2023-05-14T19:14:48.870Z,7.35
2023-05-14T19:17:19.127Z,7.35
2023-05-14T19:19:47.727Z,6.63
2023-05-14T19:22:15.001Z,6.15
2023-05-14T19:24:42.272Z,5.25
2023-05-14T19:27:10.200Z,6.57
2023-05-14T19:29:37.691Z,6.28
2023-05-14T19:32:05.470Z,5.55
2023-05-14T19:34:32.864Z,5.60
2023-05-14T19:37:00.766Z,6.05
2023-05-14T19:39:28.017Z,6.03
2023-05-14T19:41:55.413Z,6.18
2023-05-14T19:44:22.904Z,6.60
2023-05-14T19:46:51.001Z,5.88
2023-05-14T19:49:18.445Z,6.43
2023-05-14T19:51:45.883Z,6.35
2023-05-14T19:54:13.207Z,6.68
2023-05-14T19:56:40.478Z,6.72
2023-05-14T19:59:07.960Z,6.75
2023-05-14T20:01:35.328Z,7.43
2023-05-14T20:04:02.756Z,6.82
2023-05-14T20:06:30.223Z,7.65
2023-05-14T20:08:57.600Z,7.30
2023-05-14T20:11:25.078Z,7.53
2023-05-14T20:13:52.396Z,6.95
2023-05-14T20:16:19.925Z,7.50
2023-05-14T20:18:47.470Z,7.07
2023-05-14T20:21:14.924Z,8.05
2023-05-14T20:23:42.220Z,8.80
2023-05-14T20:26:09.528Z,8.27
2023-05-14T20:28:36.824Z,8.60
2023-05-14T20:31:04.357Z,8.52
2023-05-14T20:33:31.687Z,7.68
2023-05-14T20:35:59.339Z,8.68
2023-05-14T20:38:29.297Z,8.45
2023-05-14T20:40:56.970Z,9.25
2023-05-14T20:43:27.665Z,9.80
2023-05-14T20:45:57.272Z,9.45
2023-05-14T20:48:24.720Z,8.55
2023-05-14T20:50:52.050Z,9.43
2023-05-14T20:53:19.748Z,9.93
2023-05-14T20:55:47.008Z,10.00
2023-05-14T20:58:14.197Z,9.57
2023-05-14T21:00:41.475Z,9.68
2023-05-14T21:03:08.917Z,9.68
2023-05-14T21:05:36.552Z,9.40
2023-05-14T21:08:03.876Z,10.20
2023-05-14T21:10:31.122Z,10.35
2023-05-14T21:12:58.388Z,10.70
2023-05-14T21:15:27.350Z,10.82
2023-05-14T21:17:54.955Z,10.95
2023-05-14T21:20:22.221Z,10.73
2023-05-14T21:22:49.476Z,10.55
2023-05-14T21:25:16.867Z,11.10
2023-05-14T21:27:44.175Z,11.10
2023-05-14T21:30:12.100Z,11.55
2023-05-14T21:32:39.455Z,10.95
2023-05-14T21:35:07.134Z,11.52
2023-05-14T21:37:34.374Z,11.02
2023-05-14T21:40:01.803Z,10.77
2023-05-14T21:42:29.056Z,11.82
2023-05-14T21:44:56.412Z,12.30
2023-05-14T21:47:23.814Z,12.25
2023-05-14T21:49:51.400Z,11.80
2023-05-14T21:52:18.730Z,11.85
2023-05-14T21:54:46.099Z,11.73
2023-05-14T21:57:13.396Z,12.50
2023-05-14T21:59:40.691Z,12.13
2023-05-14T22:02:08.405Z,12.05
2023-05-14T22:04:35.695Z,11.70
2023-05-14T22:07:03.371Z,12.30
2023-05-14T22:09:30.821Z,11.85
2023-05-14T22:11:58.365Z,11.57
2023-05-14T22:14:27.333Z,12.98
2023-05-14T22:16:54.756Z,12.60
2023-05-14T22:19:22.493Z,12.75
2023-05-14T22:21:49.804Z,12.95
2023-05-14T22:24:17.119Z,13.13
2023-05-14T22:26:44.848Z,12.60
2023-05-14T22:29:12.029Z,12.73
2023-05-14T22:31:39.272Z,12.15
2023-05-14T22:34:06.606Z,12.75
2023-05-14T22:36:33.955Z,12.55
2023-05-14T22:39:01.450Z,12.60
2023-05-14T22:41:28.822Z,13.68
2023-05-14T22:43:56.117Z,13.07
2023-05-14T22:46:23.528Z,12.75
2023-05-14T22:48:51.106Z,14.13
2023-05-14T22:51:18.435Z,13.02
2023-05-14T22:53:47.049Z,12.82
2023-05-14T22:56:14.334Z,13.20
2023-05-14T22:58:41.623Z,12.90
2023-05-14T23:01:09.042Z,12.95
2023-05-14T23:03:36.253Z,14.00
2023-05-14T23:06:03.663Z,13.73
2023-05-14T23:08:31.380Z,14.05
2023-05-14T23:10:58.729Z,14.57
2023-05-14T23:13:25.969Z,14.43
2023-05-14T23:15:53.692Z,15.13
2023-05-14T23:18:23.077Z,14.82
2023-05-14T23:20:50.560Z,15.43
2023-05-14T23:23:17.857Z,16.55
2023-05-14T23:25:45.294Z,15.57
2023-05-14T23:28:13.116Z,15.10
2023-05-14T23:30:40.414Z,16.25
2023-05-14T23:33:07.769Z,16.02
2023-05-14T23:35:38.727Z,16.83
2023-05-14T23:38:07.004Z,15.68
2023-05-14T23:40:34.432Z,17.00
2023-05-14T23:43:01.733Z,14.88
2023-05-14T23:45:29.942Z,16.95
2023-05-14T23:47:58.155Z,16.23
2023-05-14T23:50:25.727Z,16.92
2023-05-14T23:52:54.154Z,17.52
2023-05-14T23:55:21.776Z,17.95
2023-05-14T23:57:49.164Z,18.30
